sensor_id;sensor_type;location;lat;lon;timestamp;P1;durP1;ratioP1;P2;durP2;ratioP2
12844;SDS011;68700;48.534;9.196;2023-11-18T00:01:40;2.37;;;2.17;;
12844;SDS011;68700;48.534;9.196;2023-11-18T00:05:03;2.53;;;2.33;;
12844;SDS011;68700;48.534;9.196;2023-11-18T00:08:27;2.83;;;1.93;;
12844;SDS011;68700;48.534;9.196;2023-11-18T00:11:49;2.00;;;1.80;;
12844;SDS011;68700;48.534;9.196;2023-11-18T00:15:10;3.03;;;1.70;;
12844;SDS011;68700;48.534;9.196;2023-11-18T00:18:34;3.43;;;2.23;;
12844;SDS011;68700;48.534;9.196;2023-11-18T00:21:56;2.50;;;2.00;;
12844;SDS011;68700;48.534;9.196;2023-11-18T00:25:18;2.67;;;2.30;;
12844;SDS011;68700;48.534;9.196;2023-11-18T00:28:39;2.23;;;1.97;;
12844;SDS011;68700;48.534;9.196;2023-11-18T00:32:01;2.87;;;2.40;;
12844;SDS011;68700;48.534;9.196;2023-11-18T00:35:25;3.00;;;2.43;;
12844;SDS011;68700;48.534;9.196;2023-11-18T00:38:47;3.10;;;2.50;;
12844;SDS011;68700;48.534;9.196;2023-11-18T00:42:09;2.90;;;2.50;;
12844;SDS011;68700;48.534;9.196;2023-11-18T00:45:30;2.97;;;2.73;;
12844;SDS011;68700;48.534;9.196;2023-11-18T00:48:53;6.77;;;4.30;;
12844;SDS011;68700;48.534;9.196;2023-11-18T00:52:19;3.37;;;2.93;;
12844;SDS011;68700;48.534;9.196;2023-11-18T00:55:41;2.77;;;2.57;;
12844;SDS011;68700;48.534;9.196;2023-11-18T00:59:02;4.03;;;3.13;;
12844;SDS011;68700;48.534;9.196;2023-11-18T01:02:26;3.10;;;2.80;;
12844;SDS011;68700;48.534;9.196;2023-11-18T01:05:48;2.90;;;2.60;;
12844;SDS011;68700;48.534;9.196;2023-11-18T01:09:11;3.37;;;2.43;;
12844;SDS011;68700;48.534;9.196;2023-11-18T01:12:33;3.27;;;2.77;;
12844;SDS011;68700;48.534;9.196;2023-11-18T01:15:55;2.87;;;2.60;;
12844;SDS011;68700;48.534;9.196;2023-11-18T01:19:17;3.03;;;2.73;;
12844;SDS011;68700;48.534;9.196;2023-11-18T01:22:40;3.07;;;2.73;;
12844;SDS011;68700;48.534;9.196;2023-11-18T01:26:07;2.50;;;2.30;;
12844;SDS011;68700;48.534;9.196;2023-11-18T01:29:28;4.90;;;2.97;;
12844;SDS011;68700;48.534;9.196;2023-11-18T01:32:51;3.13;;;2.80;;
12844;SDS011;68700;48.534;9.196;2023-11-18T01:36:12;3.17;;;2.87;;
12844;SDS011;68700;48.534;9.196;2023-11-18T01:39:34;3.60;;;3.07;;
12844;SDS011;68700;48.534;9.196;2023-11-18T01:42:58;4.60;;;3.67;;
12844;SDS011;68700;48.534;9.196;2023-11-18T01:46:20;5.33;;;3.73;;
12844;SDS011;68700;48.534;9.196;2023-11-18T01:49:43;3.27;;;2.97;;
12844;SDS011;68700;48.534;9.196;2023-11-18T01:53:05;2.97;;;2.63;;
12844;SDS011;68700;48.534;9.196;2023-11-18T01:56:27;4.00;;;2.43;;
12844;SDS011;68700;48.534;9.196;2023-11-18T01:59:51;2.30;;;2.03;;
12844;SDS011;68700;48.534;9.196;2023-11-18T02:03:12;2.37;;;2.17;;
12844;SDS011;68700;48.534;9.196;2023-11-18T02:06:34;2.30;;;2.10;;
12844;SDS011;68700;48.534;9.196;2023-11-18T02:09:56;2.50;;;2.17;;
12844;SDS011;68700;48.534;9.196;2023-11-18T02:13:21;2.53;;;2.33;;
12844;SDS011;68700;48.534;9.196;2023-11-18T02:16:49;2.60;;;2.20;;
12844;SDS011;68700;48.534;9.196;2023-11-18T02:20:14;2.83;;;2.20;;
12844;SDS011;68700;48.534;9.196;2023-11-18T02:23:40;3.40;;;2.57;;
12844;SDS011;68700;48.534;9.196;2023-11-18T02:27:04;3.90;;;2.70;;
12844;SDS011;68700;48.534;9.196;2023-11-18T02:30:27;2.53;;;2.20;;
12844;SDS011;68700;48.534;9.196;2023-11-18T02:33:53;4.10;;;2.40;;
12844;SDS011;68700;48.534;9.196;2023-11-18T02:37:23;2.83;;;2.53;;
12844;SDS011;68700;48.534;9.196;2023-11-18T02:40:46;3.33;;;2.80;;
12844;SDS011;68700;48.534;9.196;2023-11-18T02:44:12;3.00;;;2.67;;
12844;SDS011;68700;48.534;9.196;2023-11-18T02:47:37;2.83;;;2.60;;
12844;SDS011;68700;48.534;9.196;2023-11-18T02:50:59;4.90;;;3.87;;
12844;SDS011;68700;48.534;9.196;2023-11-18T02:54:21;4.03;;;3.00;;
12844;SDS011;68700;48.534;9.196;2023-11-18T02:57:44;3.03;;;2.70;;
12844;SDS011;68700;48.534;9.196;2023-11-18T03:01:08;3.83;;;2.90;;
12844;SDS011;68700;48.534;9.196;2023-11-18T03:04:30;4.60;;;3.20;;
12844;SDS011;68700;48.534;9.196;2023-11-18T03:07:51;3.17;;;2.87;;
12844;SDS011;68700;48.534;9.196;2023-11-18T03:11:18;3.50;;;3.00;;
12844;SDS011;68700;48.534;9.196;2023-11-18T03:14:40;2.97;;;2.63;;
12844;SDS011;68700;48.534;9.196;2023-11-18T03:18:03;3.43;;;2.57;;
12844;SDS011;68700;48.534;9.196;2023-11-18T03:21:26;2.90;;;2.60;;
12844;SDS011;68700;48.534;9.196;2023-11-18T03:24:48;3.07;;;2.73;;
12844;SDS011;68700;48.534;9.196;2023-11-18T03:28:10;3.23;;;2.93;;
12844;SDS011;68700;48.534;9.196;2023-11-18T03:31:32;3.00;;;2.70;;
12844;SDS011;68700;48.534;9.196;2023-11-18T03:34:55;3.13;;;2.70;;
12844;SDS011;68700;48.534;9.196;2023-11-18T03:38:18;2.87;;;2.67;;
12844;SDS011;68700;48.534;9.196;2023-11-18T03:41:40;2.90;;;2.40;;
12844;SDS011;68700;48.534;9.196;2023-11-18T03:45:04;3.60;;;2.60;;
12844;SDS011;68700;48.534;9.196;2023-11-18T03:48:27;3.70;;;3.17;;
12844;SDS011;68700;48.534;9.196;2023-11-18T03:51:50;4.07;;;3.27;;
12844;SDS011;68700;48.534;9.196;2023-11-18T03:55:12;3.00;;;2.70;;
12844;SDS011;68700;48.534;9.196;2023-11-18T03:58:34;3.47;;;2.80;;
12844;SDS011;68700;48.534;9.196;2023-11-18T04:01:56;4.17;;;3.20;;
12844;SDS011;68700;48.534;9.196;2023-11-18T04:05:18;3.80;;;3.33;;
12844;SDS011;68700;48.534;9.196;2023-11-18T04:08:43;2.83;;;2.60;;
12844;SDS011;68700;48.534;9.196;2023-11-18T04:12:05;2.90;;;2.70;;
12844;SDS011;68700;48.534;9.196;2023-11-18T04:15:27;4.13;;;3.13;;
12844;SDS011;68700;48.534;9.196;2023-11-18T04:18:50;3.50;;;3.20;;
12844;SDS011;68700;48.534;9.196;2023-11-18T04:22:12;4.10;;;3.43;;
12844;SDS011;68700;48.534;9.196;2023-11-18T04:25:35;4.67;;;3.97;;
12844;SDS011;68700;48.534;9.196;2023-11-18T04:28:56;4.13;;;3.73;;
12844;SDS011;68700;48.534;9.196;2023-11-18T04:32:18;4.67;;;3.83;;
12844;SDS011;68700;48.534;9.196;2023-11-18T04:35:40;5.10;;;4.60;;
12844;SDS011;68700;48.534;9.196;2023-11-18T04:39:02;4.57;;;4.07;;
12844;SDS011;68700;48.534;9.196;2023-11-18T04:42:25;4.40;;;3.70;;
12844;SDS011;68700;48.534;9.196;2023-11-18T04:45:49;5.43;;;3.60;;
12844;SDS011;68700;48.534;9.196;2023-11-18T04:49:12;3.17;;;2.83;;
12844;SDS011;68700;48.534;9.196;2023-11-18T04:52:34;3.47;;;3.17;;
12844;SDS011;68700;48.534;9.196;2023-11-18T04:55:56;4.77;;;3.37;;
12844;SDS011;68700;48.534;9.196;2023-11-18T04:59:20;4.43;;;3.40;;
12844;SDS011;68700;48.534;9.196;2023-11-18T05:02:42;5.40;;;3.10;;
12844;SDS011;68700;48.534;9.196;2023-11-18T05:06:05;2.97;;;2.67;;
12844;SDS011;68700;48.534;9.196;2023-11-18T05:09:28;3.83;;;3.30;;
12844;SDS011;68700;48.534;9.196;2023-11-18T05:12:51;4.53;;;3.40;;
12844;SDS011;68700;48.534;9.196;2023-11-18T05:16:17;4.47;;;3.90;;
12844;SDS011;68700;48.534;9.196;2023-11-18T05:19:39;3.43;;;3.00;;
12844;SDS011;68700;48.534;9.196;2023-11-18T05:23:01;4.00;;;3.20;;
12844;SDS011;68700;48.534;9.196;2023-11-18T05:26:23;3.90;;;3.50;;
12844;SDS011;68700;48.534;9.196;2023-11-18T05:29:46;4.87;;;3.73;;
12844;SDS011;68700;48.534;9.196;2023-11-18T05:33:15;4.00;;;3.60;;
12844;SDS011;68700;48.534;9.196;2023-11-18T05:36:38;5.13;;;3.77;;
12844;SDS011;68700;48.534;9.196;2023-11-18T05:40:00;4.10;;;3.70;;
12844;SDS011;68700;48.534;9.196;2023-11-18T05:43:27;4.13;;;3.73;;
12844;SDS011;68700;48.534;9.196;2023-11-18T05:46:56;5.40;;;4.20;;
12844;SDS011;68700;48.534;9.196;2023-11-18T05:50:19;5.27;;;4.77;;
12844;SDS011;68700;48.534;9.196;2023-11-18T05:53:41;5.07;;;4.57;;
12844;SDS011;68700;48.534;9.196;2023-11-18T05:57:05;5.53;;;4.40;;
12844;SDS011;68700;48.534;9.196;2023-11-18T06:00:27;4.93;;;4.23;;
12844;SDS011;68700;48.534;9.196;2023-11-18T06:03:50;5.37;;;4.43;;
12844;SDS011;68700;48.534;9.196;2023-11-18T06:07:14;4.63;;;4.13;;
12844;SDS011;68700;48.534;9.196;2023-11-18T06:10:35;5.33;;;4.13;;
12844;SDS011;68700;48.534;9.196;2023-11-18T06:13:58;5.00;;;4.00;;
12844;SDS011;68700;48.534;9.196;2023-11-18T06:17:20;4.53;;;4.13;;
12844;SDS011;68700;48.534;9.196;2023-11-18T06:20:42;4.30;;;3.90;;
12844;SDS011;68700;48.534;9.196;2023-11-18T06:24:05;6.47;;;4.33;;
12844;SDS011;68700;48.534;9.196;2023-11-18T06:27:31;5.13;;;3.67;;
12844;SDS011;68700;48.534;9.196;2023-11-18T06:30:53;4.37;;;3.70;;
12844;SDS011;68700;48.534;9.196;2023-11-18T06:34:15;4.83;;;3.70;;
12844;SDS011;68700;48.534;9.196;2023-11-18T06:37:38;3.80;;;3.50;;
12844;SDS011;68700;48.534;9.196;2023-11-18T06:41:01;6.07;;;4.57;;
12844;SDS011;68700;48.534;9.196;2023-11-18T06:44:25;6.80;;;5.07;;
12844;SDS011;68700;48.534;9.196;2023-11-18T06:47:47;4.97;;;4.57;;
12844;SDS011;68700;48.534;9.196;2023-11-18T06:51:09;5.80;;;4.83;;
12844;SDS011;68700;48.534;9.196;2023-11-18T06:54:31;6.00;;;4.70;;
12844;SDS011;68700;48.534;9.196;2023-11-18T06:57:55;6.20;;;5.07;;
12844;SDS011;68700;48.534;9.196;2023-11-18T07:01:16;6.63;;;5.30;;
12844;SDS011;68700;48.534;9.196;2023-11-18T07:04:38;5.87;;;5.27;;
12844;SDS011;68700;48.534;9.196;2023-11-18T07:08:00;5.87;;;5.03;;
12844;SDS011;68700;48.534;9.196;2023-11-18T07:11:23;6.27;;;5.67;;
12844;SDS011;68700;48.534;9.196;2023-11-18T07:14:48;5.90;;;5.30;;
12844;SDS011;68700;48.534;9.196;2023-11-18T07:18:10;5.50;;;5.00;;
12844;SDS011;68700;48.534;9.196;2023-11-18T07:21:32;4.37;;;3.87;;
12844;SDS011;68700;48.534;9.196;2023-11-18T07:24:54;4.17;;;3.80;;
12844;SDS011;68700;48.534;9.196;2023-11-18T07:28:16;4.23;;;3.57;;
12844;SDS011;68700;48.534;9.196;2023-11-18T07:31:39;4.70;;;3.50;;
12844;SDS011;68700;48.534;9.196;2023-11-18T07:35:01;3.93;;;3.07;;
12844;SDS011;68700;48.534;9.196;2023-11-18T07:38:25;3.17;;;2.87;;
12844;SDS011;68700;48.534;9.196;2023-11-18T07:41:47;5.40;;;2.60;;
12844;SDS011;68700;48.534;9.196;2023-11-18T07:45:09;2.83;;;2.50;;
12844;SDS011;68700;48.534;9.196;2023-11-18T07:48:38;2.40;;;2.20;;
12844;SDS011;68700;48.534;9.196;2023-11-18T07:52:01;2.60;;;2.40;;
12844;SDS011;68700;48.534;9.196;2023-11-18T07:55:22;3.77;;;2.43;;
12844;SDS011;68700;48.534;9.196;2023-11-18T07:58:44;2.30;;;2.03;;
12844;SDS011;68700;48.534;9.196;2023-11-18T08:02:06;2.90;;;2.60;;
12844;SDS011;68700;48.534;9.196;2023-11-18T08:05:30;2.57;;;2.27;;
12844;SDS011;68700;48.534;9.196;2023-11-18T08:08:53;3.20;;;2.90;;
12844;SDS011;68700;48.534;9.196;2023-11-18T08:12:17;3.80;;;3.50;;
12844;SDS011;68700;48.534;9.196;2023-11-18T08:15:41;4.97;;;4.00;;
12844;SDS011;68700;48.534;9.196;2023-11-18T08:19:05;7.73;;;4.80;;
12844;SDS011;68700;48.534;9.196;2023-11-18T08:22:29;4.27;;;3.87;;
12844;SDS011;68700;48.534;9.196;2023-11-18T08:25:51;3.40;;;3.10;;
12844;SDS011;68700;48.534;9.196;2023-11-18T08:29:13;3.53;;;3.23;;
12844;SDS011;68700;48.534;9.196;2023-11-18T08:32:36;3.10;;;2.77;;
12844;SDS011;68700;48.534;9.196;2023-11-18T08:35:59;3.60;;;3.00;;
12844;SDS011;68700;48.534;9.196;2023-11-18T08:39:23;3.00;;;2.80;;
12844;SDS011;68700;48.534;9.196;2023-11-18T08:42:46;3.33;;;3.03;;
12844;SDS011;68700;48.534;9.196;2023-11-18T08:46:10;3.30;;;3.00;;
12844;SDS011;68700;48.534;9.196;2023-11-18T08:49:32;2.60;;;2.40;;
12844;SDS011;68700;48.534;9.196;2023-11-18T08:52:54;3.33;;;2.90;;
12844;SDS011;68700;48.534;9.196;2023-11-18T08:56:20;4.80;;;2.77;;
12844;SDS011;68700;48.534;9.196;2023-11-18T08:59:51;4.47;;;2.90;;
12844;SDS011;68700;48.534;9.196;2023-11-18T09:03:13;4.03;;;2.73;;
12844;SDS011;68700;48.534;9.196;2023-11-18T09:06:44;3.13;;;2.83;;
12844;SDS011;68700;48.534;9.196;2023-11-18T09:10:06;5.07;;;3.03;;
12844;SDS011;68700;48.534;9.196;2023-11-18T09:13:30;3.23;;;2.60;;
12844;SDS011;68700;48.534;9.196;2023-11-18T09:16:54;2.70;;;2.30;;
12844;SDS011;68700;48.534;9.196;2023-11-18T09:20:18;6.07;;;3.00;;
12844;SDS011;68700;48.534;9.196;2023-11-18T09:23:42;3.00;;;2.70;;
12844;SDS011;68700;48.534;9.196;2023-11-18T09:27:05;2.50;;;2.30;;
12844;SDS011;68700;48.534;9.196;2023-11-18T09:30:30;2.67;;;2.47;;
12844;SDS011;68700;48.534;9.196;2023-11-18T09:33:53;2.83;;;2.43;;
12844;SDS011;68700;48.534;9.196;2023-11-18T09:37:17;2.40;;;2.20;;
12844;SDS011;68700;48.534;9.196;2023-11-18T09:40:40;3.60;;;2.53;;
12844;SDS011;68700;48.534;9.196;2023-11-18T09:44:06;2.60;;;2.40;;
12844;SDS011;68700;48.534;9.196;2023-11-18T09:47:29;4.30;;;2.20;;
12844;SDS011;68700;48.534;9.196;2023-11-18T09:50:52;4.77;;;2.20;;
12844;SDS011;68700;48.534;9.196;2023-11-18T09:54:19;3.17;;;2.50;;
12844;SDS011;68700;48.534;9.196;2023-11-18T09:57:50;2.47;;;2.27;;
12844;SDS011;68700;48.534;9.196;2023-11-18T10:01:17;2.60;;;2.40;;
12844;SDS011;68700;48.534;9.196;2023-11-18T10:04:43;3.10;;;2.43;;
12844;SDS011;68700;48.534;9.196;2023-11-18T10:08:06;2.73;;;2.47;;
12844;SDS011;68700;48.534;9.196;2023-11-18T10:11:28;2.30;;;2.10;;
12844;SDS011;68700;48.534;9.196;2023-11-18T10:14:49;3.80;;;2.27;;
12844;SDS011;68700;48.534;9.196;2023-11-18T10:18:12;3.20;;;2.53;;
12844;SDS011;68700;48.534;9.196;2023-11-18T10:21:43;3.20;;;2.63;;
12844;SDS011;68700;48.534;9.196;2023-11-18T10:25:08;4.40;;;2.90;;
12844;SDS011;68700;48.534;9.196;2023-11-18T10:28:34;4.57;;;2.70;;
12844;SDS011;68700;48.534;9.196;2023-11-18T10:32:04;3.70;;;2.90;;
12844;SDS011;68700;48.534;9.196;2023-11-18T10:35:29;4.23;;;2.73;;
12844;SDS011;68700;48.534;9.196;2023-11-18T10:38:53;4.83;;;3.00;;
12844;SDS011;68700;48.534;9.196;2023-11-18T10:42:15;3.83;;;2.70;;
12844;SDS011;68700;48.534;9.196;2023-11-18T10:45:38;5.47;;;3.97;;
12844;SDS011;68700;48.534;9.196;2023-11-18T10:49:00;3.40;;;2.87;;
12844;SDS011;68700;48.534;9.196;2023-11-18T10:52:22;4.10;;;3.60;;
12844;SDS011;68700;48.534;9.196;2023-11-18T10:55:47;3.80;;;2.97;;
12844;SDS011;68700;48.534;9.196;2023-11-18T10:59:10;3.97;;;2.70;;
12844;SDS011;68700;48.534;9.196;2023-11-18T11:02:36;4.47;;;2.90;;
12844;SDS011;68700;48.534;9.196;2023-11-18T11:06:04;2.87;;;2.67;;
12844;SDS011;68700;48.534;9.196;2023-11-18T11:09:38;3.87;;;2.93;;
12844;SDS011;68700;48.534;9.196;2023-11-18T11:13:03;4.13;;;2.70;;
12844;SDS011;68700;48.534;9.196;2023-11-18T11:16:28;3.70;;;3.30;;
12844;SDS011;68700;48.534;9.196;2023-11-18T11:19:59;3.50;;;3.20;;
12844;SDS011;68700;48.534;9.196;2023-11-18T11:23:35;4.60;;;3.27;;
12844;SDS011;68700;48.534;9.196;2023-11-18T11:27:05;3.37;;;3.00;;
12844;SDS011;68700;48.534;9.196;2023-11-18T11:30:40;3.60;;;2.90;;
12844;SDS011;68700;48.534;9.196;2023-11-18T11:34:06;4.53;;;3.60;;
12844;SDS011;68700;48.534;9.196;2023-11-18T11:37:35;3.33;;;2.93;;
12844;SDS011;68700;48.534;9.196;2023-11-18T11:41:02;3.50;;;3.20;;
12844;SDS011;68700;48.534;9.196;2023-11-18T11:44:28;6.97;;;3.63;;
12844;SDS011;68700;48.534;9.196;2023-11-18T11:47:52;3.17;;;2.87;;
12844;SDS011;68700;48.534;9.196;2023-11-18T11:51:34;3.13;;;2.83;;
12844;SDS011;68700;48.534;9.196;2023-11-18T11:55:09;4.17;;;2.97;;
12844;SDS011;68700;48.534;9.196;2023-11-18T11:58:40;4.73;;;3.20;;
12844;SDS011;68700;48.534;9.196;2023-11-18T12:02:04;3.57;;;2.83;;
12844;SDS011;68700;48.534;9.196;2023-11-18T12:05:29;4.63;;;3.17;;
12844;SDS011;68700;48.534;9.196;2023-11-18T12:08:53;3.50;;;3.20;;
12844;SDS011;68700;48.534;9.196;2023-11-18T12:12:19;3.10;;;2.80;;
12844;SDS011;68700;48.534;9.196;2023-11-18T12:15:49;3.17;;;2.87;;
12844;SDS011;68700;48.534;9.196;2023-11-18T12:19:29;4.47;;;3.27;;
12844;SDS011;68700;48.534;9.196;2023-11-18T12:23:03;3.00;;;2.70;;
12844;SDS011;68700;48.534;9.196;2023-11-18T12:26:40;3.27;;;2.60;;
12844;SDS011;68700;48.534;9.196;2023-11-18T12:30:04;3.63;;;2.80;;
12844;SDS011;68700;48.534;9.196;2023-11-18T12:37:34;3.07;;;2.73;;
12844;SDS011;68700;48.534;9.196;2023-11-18T12:41:18;4.00;;;2.80;;
12844;SDS011;68700;48.534;9.196;2023-11-18T12:45:13;3.17;;;2.83;;
12844;SDS011;68700;48.534;9.196;2023-11-18T12:48:56;3.07;;;2.77;;
12844;SDS011;68700;48.534;9.196;2023-11-18T12:52:20;4.20;;;2.83;;
12844;SDS011;68700;48.534;9.196;2023-11-18T12:55:43;4.20;;;2.23;;
12844;SDS011;68700;48.534;9.196;2023-11-18T12:59:07;2.50;;;2.30;;
12844;SDS011;68700;48.534;9.196;2023-11-18T13:02:31;2.93;;;2.03;;
12844;SDS011;68700;48.534;9.196;2023-11-18T13:05:52;1.70;;;1.57;;
12844;SDS011;68700;48.534;9.196;2023-11-18T13:09:14;3.03;;;1.67;;
12844;SDS011;68700;48.534;9.196;2023-11-18T13:12:45;2.60;;;1.60;;
12844;SDS011;68700;48.534;9.196;2023-11-18T13:16:09;2.93;;;1.60;;
12844;SDS011;68700;48.534;9.196;2023-11-18T13:19:31;3.80;;;1.90;;
12844;SDS011;68700;48.534;9.196;2023-11-18T13:22:54;2.03;;;1.77;;
12844;SDS011;68700;48.534;9.196;2023-11-18T13:26:16;3.07;;;1.80;;
12844;SDS011;68700;48.534;9.196;2023-11-18T13:29:39;2.33;;;2.13;;
12844;SDS011;68700;48.534;9.196;2023-11-18T13:33:07;2.67;;;2.23;;
12844;SDS011;68700;48.534;9.196;2023-11-18T13:36:29;4.07;;;2.30;;
12844;SDS011;68700;48.534;9.196;2023-11-18T13:39:55;2.87;;;2.00;;
12844;SDS011;68700;48.534;9.196;2023-11-18T13:43:18;2.63;;;2.20;;
12844;SDS011;68700;48.534;9.196;2023-11-18T13:46:43;2.67;;;1.80;;
12844;SDS011;68700;48.534;9.196;2023-11-18T13:50:07;3.73;;;2.13;;
12844;SDS011;68700;48.534;9.196;2023-11-18T13:53:30;3.93;;;2.10;;
12844;SDS011;68700;48.534;9.196;2023-11-18T13:56:53;2.40;;;2.20;;
12844;SDS011;68700;48.534;9.196;2023-11-18T14:00:18;4.80;;;2.23;;
12844;SDS011;68700;48.534;9.196;2023-11-18T14:03:43;3.57;;;2.23;;
12844;SDS011;68700;48.534;9.196;2023-11-18T14:07:09;2.67;;;2.00;;
12844;SDS011;68700;48.534;9.196;2023-11-18T14:10:32;3.57;;;2.87;;
12844;SDS011;68700;48.534;9.196;2023-11-18T14:13:56;3.40;;;3.10;;
12844;SDS011;68700;48.534;9.196;2023-11-18T14:17:18;3.30;;;2.87;;
12844;SDS011;68700;48.534;9.196;2023-11-18T14:20:43;3.20;;;2.53;;
12844;SDS011;68700;48.534;9.196;2023-11-18T14:24:09;3.20;;;2.23;;
12844;SDS011;68700;48.534;9.196;2023-11-18T14:27:31;3.13;;;2.53;;
12844;SDS011;68700;48.534;9.196;2023-11-18T14:30:53;3.47;;;2.53;;
12844;SDS011;68700;48.534;9.196;2023-11-18T14:34:15;3.07;;;2.77;;
12844;SDS011;68700;48.534;9.196;2023-11-18T14:37:38;4.33;;;2.80;;
12844;SDS011;68700;48.534;9.196;2023-11-18T14:41:03;4.77;;;3.27;;
12844;SDS011;68700;48.534;9.196;2023-11-18T14:44:27;5.00;;;3.20;;
12844;SDS011;68700;48.534;9.196;2023-11-18T14:47:50;2.60;;;2.27;;
12844;SDS011;68700;48.534;9.196;2023-11-18T14:51:13;2.47;;;1.97;;
12844;SDS011;68700;48.534;9.196;2023-11-18T14:54:34;3.10;;;2.27;;
12844;SDS011;68700;48.534;9.196;2023-11-18T14:57:58;2.53;;;1.83;;
12844;SDS011;68700;48.534;9.196;2023-11-18T15:01:20;4.47;;;3.30;;
12844;SDS011;68700;48.534;9.196;2023-11-18T15:04:42;3.00;;;2.20;;
12844;SDS011;68700;48.534;9.196;2023-11-18T15:08:04;2.50;;;1.83;;
12844;SDS011;68700;48.534;9.196;2023-11-18T15:11:29;3.87;;;2.13;;
12844;SDS011;68700;48.534;9.196;2023-11-18T15:14:55;1.90;;;1.60;;
12844;SDS011;68700;48.534;9.196;2023-11-18T15:18:19;2.17;;;1.50;;
12844;SDS011;68700;48.534;9.196;2023-11-18T15:21:41;4.30;;;1.47;;
12844;SDS011;68700;48.534;9.196;2023-11-18T15:25:03;2.00;;;1.50;;
12844;SDS011;68700;48.534;9.196;2023-11-18T15:28:30;2.07;;;1.50;;
12844;SDS011;68700;48.534;9.196;2023-11-18T15:31:53;3.50;;;1.67;;
12844;SDS011;68700;48.534;9.196;2023-11-18T15:35:16;2.30;;;1.30;;
12844;SDS011;68700;48.534;9.196;2023-11-18T15:38:38;2.63;;;1.40;;
12844;SDS011;68700;48.534;9.196;2023-11-18T15:42:00;2.40;;;1.53;;
12844;SDS011;68700;48.534;9.196;2023-11-18T15:45:22;2.13;;;1.63;;
12844;SDS011;68700;48.534;9.196;2023-11-18T15:48:46;4.07;;;1.47;;
12844;SDS011;68700;48.534;9.196;2023-11-18T15:52:08;3.73;;;1.30;;
12844;SDS011;68700;48.534;9.196;2023-11-18T15:55:30;2.87;;;1.53;;
12844;SDS011;68700;48.534;9.196;2023-11-18T15:58:52;2.47;;;1.33;;
12844;SDS011;68700;48.534;9.196;2023-11-18T16:02:14;2.43;;;1.30;;
12844;SDS011;68700;48.534;9.196;2023-11-18T16:05:37;2.80;;;1.33;;
12844;SDS011;68700;48.534;9.196;2023-11-18T16:09:00;2.00;;;1.23;;
12844;SDS011;68700;48.534;9.196;2023-11-18T16:12:23;1.50;;;1.20;;
12844;SDS011;68700;48.534;9.196;2023-11-18T16:15:45;2.47;;;1.37;;
12844;SDS011;68700;48.534;9.196;2023-11-18T16:19:07;2.43;;;1.60;;
12844;SDS011;68700;48.534;9.196;2023-11-18T16:22:30;2.07;;;1.40;;
12844;SDS011;68700;48.534;9.196;2023-11-18T16:25:52;1.90;;;1.60;;
12844;SDS011;68700;48.534;9.196;2023-11-18T16:29:13;1.40;;;1.30;;
12844;SDS011;68700;48.534;9.196;2023-11-18T16:32:37;2.17;;;1.60;;
12844;SDS011;68700;48.534;9.196;2023-11-18T16:35:59;2.97;;;1.80;;
12844;SDS011;68700;48.534;9.196;2023-11-18T16:39:22;3.43;;;1.67;;
12844;SDS011;68700;48.534;9.196;2023-11-18T16:42:44;2.87;;;1.50;;
12844;SDS011;68700;48.534;9.196;2023-11-18T16:46:07;2.63;;;1.50;;
12844;SDS011;68700;48.534;9.196;2023-11-18T16:49:29;2.90;;;1.73;;
12844;SDS011;68700;48.534;9.196;2023-11-18T16:52:51;1.40;;;1.30;;
12844;SDS011;68700;48.534;9.196;2023-11-18T16:56:15;3.93;;;1.30;;
12844;SDS011;68700;48.534;9.196;2023-11-18T16:59:37;1.70;;;1.20;;
12844;SDS011;68700;48.534;9.196;2023-11-18T17:02:59;1.53;;;1.43;;
12844;SDS011;68700;48.534;9.196;2023-11-18T17:06:21;3.00;;;1.50;;
12844;SDS011;68700;48.534;9.196;2023-11-18T17:09:43;2.60;;;1.37;;
12844;SDS011;68700;48.534;9.196;2023-11-18T17:13:08;1.77;;;1.50;;
12844;SDS011;68700;48.534;9.196;2023-11-18T17:16:30;2.87;;;2.00;;
12844;SDS011;68700;48.534;9.196;2023-11-18T17:19:52;2.60;;;1.73;;
12844;SDS011;68700;48.534;9.196;2023-11-18T17:23:14;2.13;;;1.60;;
12844;SDS011;68700;48.534;9.196;2023-11-18T17:26:36;3.47;;;1.60;;
12844;SDS011;68700;48.534;9.196;2023-11-18T17:30:00;2.50;;;1.90;;
12844;SDS011;68700;48.534;9.196;2023-11-18T17:33:23;2.53;;;2.00;;
12844;SDS011;68700;48.534;9.196;2023-11-18T17:36:45;2.03;;;1.83;;
12844;SDS011;68700;48.534;9.196;2023-11-18T17:40:07;1.93;;;1.80;;
12844;SDS011;68700;48.534;9.196;2023-11-18T17:43:31;2.27;;;1.80;;
12844;SDS011;68700;48.534;9.196;2023-11-18T17:46:54;2.77;;;2.00;;
12844;SDS011;68700;48.534;9.196;2023-11-18T17:50:16;2.60;;;2.20;;
12844;SDS011;68700;48.534;9.196;2023-11-18T17:53:38;2.40;;;2.13;;
12844;SDS011;68700;48.534;9.196;2023-11-18T17:57:00;2.57;;;2.23;;
12844;SDS011;68700;48.534;9.196;2023-11-18T18:00:22;4.17;;;2.60;;
12844;SDS011;68700;48.534;9.196;2023-11-18T18:03:48;4.17;;;3.00;;
12844;SDS011;68700;48.534;9.196;2023-11-18T18:07:10;3.87;;;3.00;;
12844;SDS011;68700;48.534;9.196;2023-11-18T18:10:32;4.27;;;3.20;;
12844;SDS011;68700;48.534;9.196;2023-11-18T18:13:54;3.50;;;3.20;;
12844;SDS011;68700;48.534;9.196;2023-11-18T18:17:15;4.67;;;3.83;;
12844;SDS011;68700;48.534;9.196;2023-11-18T18:20:39;6.60;;;3.97;;
12844;SDS011;68700;48.534;9.196;2023-11-18T18:24:08;4.73;;;4.23;;
12844;SDS011;68700;48.534;9.196;2023-11-18T18:27:31;5.37;;;4.20;;
12844;SDS011;68700;48.534;9.196;2023-11-18T18:30:54;6.60;;;4.77;;
12844;SDS011;68700;48.534;9.196;2023-11-18T18:34:17;5.60;;;4.80;;
12844;SDS011;68700;48.534;9.196;2023-11-18T18:37:40;5.63;;;4.70;;
12844;SDS011;68700;48.534;9.196;2023-11-18T18:41:03;4.67;;;4.17;;
12844;SDS011;68700;48.534;9.196;2023-11-18T18:44:26;6.47;;;4.30;;
12844;SDS011;68700;48.534;9.196;2023-11-18T18:47:48;5.40;;;4.87;;
12844;SDS011;68700;48.534;9.196;2023-11-18T18:51:10;6.77;;;5.43;;
12844;SDS011;68700;48.534;9.196;2023-11-18T18:54:33;5.57;;;4.87;;
12844;SDS011;68700;48.534;9.196;2023-11-18T18:57:55;7.43;;;5.80;;
12844;SDS011;68700;48.534;9.196;2023-11-18T19:01:17;8.73;;;6.80;;
12844;SDS011;68700;48.534;9.196;2023-11-18T19:04:42;9.97;;;7.70;;
12844;SDS011;68700;48.534;9.196;2023-11-18T19:08:04;7.10;;;5.70;;
12844;SDS011;68700;48.534;9.196;2023-11-18T19:11:27;6.63;;;5.93;;
12844;SDS011;68700;48.534;9.196;2023-11-18T19:14:49;7.90;;;6.10;;
12844;SDS011;68700;48.534;9.196;2023-11-18T19:18:11;6.83;;;5.93;;
12844;SDS011;68700;48.534;9.196;2023-11-18T19:21:33;6.57;;;5.70;;
12844;SDS011;68700;48.534;9.196;2023-11-18T19:24:56;6.83;;;5.60;;
12844;SDS011;68700;48.534;9.196;2023-11-18T19:28:20;7.27;;;5.70;;
12844;SDS011;68700;48.534;9.196;2023-11-18T19:31:42;7.83;;;5.63;;
12844;SDS011;68700;48.534;9.196;2023-11-18T19:35:04;6.10;;;5.47;;
12844;SDS011;68700;48.534;9.196;2023-11-18T19:38:26;6.17;;;5.33;;
12844;SDS011;68700;48.534;9.196;2023-11-18T19:41:48;6.17;;;4.90;;
12844;SDS011;68700;48.534;9.196;2023-11-18T19:45:11;5.10;;;4.60;;
12844;SDS011;68700;48.534;9.196;2023-11-18T19:48:33;6.10;;;5.10;;
12844;SDS011;68700;48.534;9.196;2023-11-18T19:51:55;5.70;;;4.70;;
12844;SDS011;68700;48.534;9.196;2023-11-18T19:55:17;6.97;;;4.97;;
12844;SDS011;68700;48.534;9.196;2023-11-18T19:58:38;5.43;;;4.70;;
12844;SDS011;68700;48.534;9.196;2023-11-18T20:02:02;6.67;;;5.23;;
12844;SDS011;68700;48.534;9.196;2023-11-18T20:05:24;6.03;;;4.70;;
12844;SDS011;68700;48.534;9.196;2023-11-18T20:08:46;4.93;;;4.10;;
12844;SDS011;68700;48.534;9.196;2023-11-18T20:12:08;4.53;;;3.80;;
12844;SDS011;68700;48.534;9.196;2023-11-18T20:15:31;5.20;;;4.07;;
12844;SDS011;68700;48.534;9.196;2023-11-18T20:18:55;5.07;;;4.57;;
12844;SDS011;68700;48.534;9.196;2023-11-18T20:22:16;5.43;;;3.60;;
12844;SDS011;68700;48.534;9.196;2023-11-18T20:25:38;5.03;;;4.03;;
12844;SDS011;68700;48.534;9.196;2023-11-18T20:29:00;4.13;;;3.70;;
12844;SDS011;68700;48.534;9.196;2023-11-18T20:32:22;4.57;;;3.83;;